Time;durP1;ratioP1;P1;durP2;ratioP2;P2;SDS_P1;SDS_P2;PMS_P1;PMS_P2;Temp;Humidity;BMP_temperature;BMP_pressure;BME280_temperature;BME280_humidity;BME280_pressure;Samples;Min_cycle;Max_cycle;Signal;HPM_P1;HPM_P2
2022/02/17 00:00:40;;;;;;;1.45;0.90;;;21.80;44.30;;;;;;4993303;28;20041;-69
2022/02/17 00:03:06;;;;;;;1.20;0.70;;;21.80;44.30;;;;;;4994060;28;20049;-68
2022/02/17 00:05:32;;;;;;;1.48;0.90;;;21.80;44.30;;;;;;5010377;28;20030;-68
2022/02/17 00:07:58;;;;;;;1.55;1.00;;;21.70;44.30;;;;;;4996898;28;20464;-68
2022/02/17 00:10:25;;;;;;;1.75;0.80;;;21.70;44.30;;;;;;4994274;28;20478;-69
2022/02/17 00:12:51;;;;;;;1.10;0.73;;;21.70;44.40;;;;;;4996189;28;20508;-68
2022/02/17 00:15:18;;;;;;;1.02;0.80;;;21.70;44.80;;;;;;5010862;28;20053;-68
2022/02/17 00:17:46;;;;;;;1.02;0.80;;;21.70;44.40;;;;;;4996254;28;20026;-69
2022/02/17 00:20:12;;;;;;;0.90;0.80;;;21.60;44.40;;;;;;4995260;28;20044;-68
2022/02/17 00:22:38;;;;;;;1.50;0.90;;;21.60;44.30;;;;;;5012468;28;20579;-69
2022/02/17 00:25:05;;;;;;;1.83;0.90;;;21.60;44.30;;;;;;4996684;28;20060;-68
2022/02/17 00:27:31;;;;;;;1.00;0.70;;;21.60;44.40;;;;;;4996126;28;20034;-68
2022/02/17 00:29:56;;;;;;;1.13;0.80;;;21.50;44.30;;;;;;4995063;28;20080;-68
2022/02/17 00:32:22;;;;;;;1.20;0.70;;;21.50;44.30;;;;;;4994536;28;20046;-67
2022/02/17 00:34:48;;;;;;;1.00;0.70;;;21.50;44.40;;;;;;4995357;28;20038;-69
2022/02/17 00:37:13;;;;;;;1.27;0.70;;;21.50;44.40;;;;;;4997323;28;20088;-68
2022/02/17 00:39:39;;;;;;;1.45;0.90;;;21.50;45.00;;;;;;4996561;28;20485;-67
2022/02/17 00:42:05;;;;;;;1.35;0.82;;;21.50;44.40;;;;;;4995083;28;20030;-68
2022/02/17 00:44:31;;;;;;;0.75;0.60;;;21.50;44.50;;;;;;4995862;28;20029;-69
2022/02/17 00:46:57;;;;;;;1.40;0.80;;;21.50;44.50;;;;;;4994902;28;20461;-67
2022/02/17 00:49:23;;;;;;;1.63;0.73;;;21.50;44.60;;;;;;4994259;28;20108;-69
2022/02/17 00:51:50;;;;;;;0.75;0.60;;;21.50;44.60;;;;;;4994026;28;20384;-68
2022/02/17 00:54:15;;;;;;;0.90;0.70;;;21.40;44.50;;;;;;4995716;28;20026;-68
2022/02/17 00:56:41;;;;;;;0.98;0.60;;;21.40;44.50;;;;;;4997742;28;20030;-69
2022/02/17 00:59:07;;;;;;;1.17;0.80;;;21.40;44.50;;;;;;4993801;28;20196;-69
2022/02/17 01:01:32;;;;;;;1.10;0.70;;;21.30;44.50;;;;;;4993218;28;20050;-67
2022/02/17 01:03:58;;;;;;;1.58;0.90;;;21.40;44.60;;;;;;4994761;28;20022;-68
2022/02/17 01:06:23;;;;;;;0.80;0.60;;;21.40;44.60;;;;;;5009719;28;20030;-69
2022/02/17 01:08:49;;;;;;;0.57;0.57;;;21.30;44.50;;;;;;4996231;28;20069;-67
2022/02/17 01:11:15;;;;;;;0.70;0.68;;;21.30;44.50;;;;;;4995697;28;20026;-68
2022/02/17 01:13:41;;;;;;;1.60;0.80;;;21.30;44.50;;;;;;4994096;28;20054;-67
2022/02/17 01:16:07;;;;;;;0.60;0.60;;;21.30;44.50;;;;;;4994296;28;20027;-69
2022/02/17 01:18:33;;;;;;;1.42;0.80;;;21.30;44.60;;;;;;4996995;28;20120;-67
2022/02/17 01:20:58;;;;;;;0.70;0.60;;;21.20;44.50;;;;;;4994848;28;20077;-67
2022/02/17 01:23:25;;;;;;;0.63;0.50;;;21.20;44.60;;;;;;5009936;28;20129;-69
2022/02/17 01:25:51;;;;;;;0.90;0.70;;;21.30;44.60;;;;;;5011296;28;20035;-67
2022/02/17 01:28:17;;;;;;;1.23;0.68;;;21.30;44.60;;;;;;4995044;28;20041;-69
2022/02/17 01:30:42;;;;;;;0.70;0.60;;;21.20;44.60;;;;;;4994727;28;20475;-68
2022/02/17 01:33:08;;;;;;;0.52;0.50;;;21.20;44.60;;;;;;5000086;28;20030;-66
2022/02/17 01:35:34;;;;;;;1.05;0.75;;;21.20;44.60;;;;;;4999720;28;20093;-68
2022/02/17 01:38:00;;;;;;;0.50;0.50;;;21.20;44.70;;;;;;4999413;28;20056;-67
2022/02/17 01:40:25;;;;;;;0.82;0.60;;;21.20;44.70;;;;;;4997820;28;20479;-68
2022/02/17 01:42:51;;;;;;;0.50;0.50;;;21.20;44.70;;;;;;4999539;28;20129;-69
2022/02/17 01:45:17;;;;;;;1.15;0.60;;;21.20;44.70;;;;;;4998168;28;20052;-68
2022/02/17 01:47:44;;;;;;;0.98;0.60;;;21.10;44.70;;;;;;4999620;28;20041;-69
2022/02/17 01:50:10;;;;;;;0.80;0.60;;;21.10;44.70;;;;;;4998806;28;20030;-69
2022/02/17 01:52:36;;;;;;;0.55;0.50;;;21.10;45.20;;;;;;4999853;28;20041;-67
2022/02/17 01:55:02;;;;;;;0.65;0.60;;;21.10;44.80;;;;;;5000339;28;20050;-67
2022/02/17 01:57:29;;;;;;;0.52;0.50;;;21.10;44.80;;;;;;4999327;28;20034;-69
2022/02/17 01:59:55;;;;;;;1.02;0.52;;;21.10;44.80;;;;;;4996839;28;20485;-68
2022/02/17 02:02:21;;;;;;;0.60;0.43;;;21.10;44.80;;;;;;4997625;28;20053;-67
2022/02/17 02:04:47;;;;;;;0.93;0.60;;;21.10;45.40;;;;;;4999152;28;20506;-67
2022/02/17 02:07:13;;;;;;;0.80;0.68;;;21.10;44.90;;;;;;4999491;28;20208;-68
2022/02/17 02:09:40;;;;;;;0.57;0.52;;;21.00;44.90;;;;;;4999803;28;20034;-68
2022/02/17 02:12:06;;;;;;;0.45;0.45;;;21.00;44.90;;;;;;4999029;28;20025;-68
2022/02/17 02:14:32;;;;;;;0.95;0.57;;;21.00;44.90;;;;;;4998004;28;20112;-68
2022/02/17 02:16:58;;;;;;;0.65;0.60;;;21.00;45.00;;;;;;4999225;28;20121;-67
2022/02/17 02:19:24;;;;;;;1.13;0.60;;;21.00;45.00;;;;;;4997464;28;20033;-67
2022/02/17 02:21:50;;;;;;;0.68;0.50;;;21.00;45.00;;;;;;4998880;28;20037;-67
2022/02/17 02:24:15;;;;;;;0.60;0.60;;;21.00;45.10;;;;;;4998445;28;20045;-68
2022/02/17 02:26:41;;;;;;;0.68;0.50;;;21.00;45.10;;;;;;5000306;28;20092;-68
2022/02/17 02:29:07;;;;;;;0.55;0.50;;;21.00;45.10;;;;;;4997799;28;20030;-69
2022/02/17 02:31:33;;;;;;;0.50;0.50;;;20.90;45.10;;;;;;4997002;28;20395;-69
2022/02/17 02:33:59;;;;;;;0.50;0.50;;;20.90;45.10;;;;;;4997752;28;20037;-68
2022/02/17 02:36:25;;;;;;;0.85;0.57;;;20.90;45.10;;;;;;4999121;28;20471;-68
2022/02/17 02:38:51;;;;;;;0.60;0.55;;;20.90;45.10;;;;;;4996743;28;20216;-68
2022/02/17 02:41:18;;;;;;;0.80;0.60;;;20.90;45.20;;;;;;4997990;28;20155;-68
2022/02/17 02:43:44;;;;;;;0.50;0.50;;;20.90;45.20;;;;;;4997600;28;20140;-69
2022/02/17 02:46:10;;;;;;;0.60;0.50;;;20.90;45.20;;;;;;4996728;28;20244;-68
2022/02/17 02:48:36;;;;;;;0.50;0.50;;;20.90;45.20;;;;;;4998482;28;20435;-68
2022/02/17 02:51:02;;;;;;;0.40;0.40;;;20.90;45.30;;;;;;4998610;28;20109;-68
2022/02/17 02:53:28;;;;;;;0.45;0.45;;;20.90;45.30;;;;;;4998128;28;20014;-67
2022/02/17 02:55:54;;;;;;;1.05;0.50;;;20.90;45.80;;;;;;4999057;28;20145;-68
2022/02/17 02:58:20;;;;;;;0.80;0.50;;;20.90;45.30;;;;;;4996833;28;20137;-68
2022/02/17 03:00:48;;;;;;;0.60;0.50;;;20.90;45.30;;;;;;4997545;28;20048;-68
2022/02/17 03:03:14;;;;;;;0.50;0.50;;;20.80;45.30;;;;;;4998569;28;20018;-69
2022/02/17 03:05:40;;;;;;;0.65;0.50;;;20.80;45.30;;;;;;4998737;28;20457;-68
2022/02/17 03:08:06;;;;;;;0.80;0.55;;;20.80;45.30;;;;;;5013282;28;20117;-69
2022/02/17 03:10:32;;;;;;;0.60;0.50;;;20.90;45.30;;;;;;4997838;28;20549;-68
2022/02/17 03:12:59;;;;;;;0.57;0.50;;;20.80;45.30;;;;;;4997591;28;20033;-68
2022/02/17 03:15:26;;;;;;;0.70;0.60;;;20.80;45.30;;;;;;4997341;28;20018;-68
2022/02/17 03:17:53;;;;;;;0.45;0.45;;;20.80;45.30;;;;;;4999011;28;20037;-69
2022/02/17 03:20:19;;;;;;;0.43;0.43;;;20.80;45.30;;;;;;4996934;28;20429;-69
2022/02/17 03:22:45;;;;;;;0.40;0.35;;;20.80;45.30;;;;;;5013289;28;20037;-68
2022/02/17 03:25:12;;;;;;;1.27;0.50;;;20.80;45.30;;;;;;4996079;28;20035;-69
2022/02/17 03:27:39;;;;;;;0.40;0.40;;;20.80;45.40;;;;;;4996482;28;20166;-69
2022/02/17 03:30:09;;;;;;;0.52;0.50;;;20.80;45.40;;;;;;4995577;28;20481;-68
2022/02/17 03:32:36;;;;;;;1.02;0.60;;;20.80;45.40;;;;;;4996671;28;20052;-69
2022/02/17 03:35:03;;;;;;;0.50;0.50;;;20.70;45.40;;;;;;5012458;28;20442;-67
2022/02/17 03:37:29;;;;;;;0.50;0.50;;;20.80;45.40;;;;;;4997889;28;20081;-69
2022/02/17 03:39:55;;;;;;;0.65;0.55;;;20.80;45.40;;;;;;4996221;28;20409;-68
2022/02/17 03:42:20;;;;;;;0.40;0.40;;;20.70;45.40;;;;;;4996864;28;20034;-69
2022/02/17 03:44:46;;;;;;;0.85;0.57;;;20.70;45.30;;;;;;4997014;28;20093;-68
2022/02/17 03:47:12;;;;;;;0.65;0.55;;;20.70;45.30;;;;;;4995724;28;20454;-68
2022/02/17 03:49:38;;;;;;;0.40;0.40;;;20.70;45.40;;;;;;4995753;28;20029;-68
2022/02/17 03:52:04;;;;;;;0.73;0.50;;;20.70;45.40;;;;;;4997461;28;20307;-68
2022/02/17 03:54:29;;;;;;;0.35;0.35;;;20.70;45.40;;;;;;4996616;28;20490;-69
2022/02/17 03:56:55;;;;;;;0.50;0.40;;;20.70;45.30;;;;;;5003371;28;20043;-68
2022/02/17 03:59:20;;;;;;;0.40;0.40;;;20.70;45.30;;;;;;4995566;28;20494;-68
2022/02/17 04:01:46;;;;;;;0.50;0.30;;;20.70;45.30;;;;;;4992552;28;20149;-69
2022/02/17 04:04:12;;;;;;;0.30;0.30;;;20.70;45.40;;;;;;4995711;28;20034;-67
2022/02/17 04:06:38;;;;;;;0.40;0.40;;;20.70;45.40;;;;;;4997621;28;20038;-68
2022/02/17 04:09:05;;;;;;;0.50;0.43;;;20.60;45.30;;;;;;4997334;28;20040;-68
2022/02/17 04:11:31;;;;;;;0.40;0.40;;;20.60;45.30;;;;;;4998174;28;20117;-69
2022/02/17 04:13:56;;;;;;;0.28;0.28;;;20.70;45.40;;;;;;4996042;28;20113;-68
2022/02/17 04:16:22;;;;;;;0.40;0.40;;;20.70;45.40;;;;;;4993577;28;20071;-68
2022/02/17 04:18:49;;;;;;;0.43;0.43;;;20.60;45.40;;;;;;4996688;28;20045;-67
2022/02/17 04:21:16;;;;;;;0.50;0.40;;;20.60;45.30;;;;;;4996574;28;20378;-67
2022/02/17 04:23:44;;;;;;;0.60;0.50;;;20.60;45.30;;;;;;5002504;28;20042;-69
2022/02/17 04:26:15;;;;;;;0.40;0.40;;;20.60;45.40;;;;;;4996760;28;20439;-69
2022/02/17 04:28:42;;;;;;;0.40;0.40;;;20.60;45.40;;;;;;4994781;28;20084;-69
2022/02/17 04:31:08;;;;;;;0.45;0.40;;;20.60;45.40;;;;;;4993914;28;20061;-68
2022/02/17 04:33:35;;;;;;;0.30;0.30;;;20.60;45.40;;;;;;4997148;28;20470;-66
2022/02/17 04:36:01;;;;;;;0.50;0.50;;;20.60;45.40;;;;;;4998159;28;20038;-69
2022/02/17 04:38:27;;;;;;;0.30;0.30;;;20.60;45.40;;;;;;5011348;28;20026;-68
2022/02/17 04:43:39;;;;;;;0.30;0.30;;;20.60;45.50;;;;;;4997071;28;20562;-67
2022/02/17 04:46:05;;;;;;;0.40;0.40;;;20.60;45.50;;;;;;4994002;28;20026;-68
2022/02/17 04:48:31;;;;;;;0.38;0.30;;;20.60;45.50;;;;;;5000229;28;20029;-67
2022/02/17 04:50:56;;;;;;;0.50;0.40;;;20.60;45.50;;;;;;5011160;28;20495;-68
2022/02/17 04:53:23;;;;;;;0.40;0.40;;;20.60;45.50;;;;;;4996261;28;20060;-67
2022/02/17 04:55:48;;;;;;;0.30;0.30;;;20.60;45.50;;;;;;4996475;28;20860;-69
2022/02/17 04:58:14;;;;;;;0.52;0.43;;;20.50;45.50;;;;;;5011425;28;20036;-67
2022/02/17 05:00:40;;;;;;;0.30;0.30;;;20.50;45.50;;;;;;4993326;28;20045;-68
2022/02/17 05:03:05;;;;;;;0.40;0.40;;;20.50;45.50;;;;;;4996229;28;20091;-67
2022/02/17 05:05:31;;;;;;;0.38;0.30;;;20.50;45.50;;;;;;4995411;28;20050;-68
2022/02/17 05:07:57;;;;;;;0.30;0.30;;;20.50;45.50;;;;;;5000096;28;20057;-69
2022/02/17 05:10:22;;;;;;;0.45;0.40;;;20.50;45.50;;;;;;5000816;28;20568;-68
2022/02/17 05:12:48;;;;;;;0.70;0.30;;;20.50;45.50;;;;;;4998303;28;20068;-68
2022/02/17 05:15:14;;;;;;;0.35;0.35;;;20.50;45.50;;;;;;5002979;28;20049;-69
2022/02/17 05:17:39;;;;;;;0.30;0.30;;;20.50;45.50;;;;;;4999511;28;20042;-68
2022/02/17 05:20:06;;;;;;;0.40;0.40;;;20.50;45.60;;;;;;4999770;28;20034;-68
2022/02/17 05:22:32;;;;;;;0.40;0.28;;;20.40;45.50;;;;;;5000573;28;20041;-68
2022/02/17 05:24:58;;;;;;;0.43;0.30;;;20.50;45.60;;;;;;5001056;28;20368;-69
2022/02/17 05:27:24;;;;;;;0.30;0.30;;;20.50;45.60;;;;;;5000675;28;20095;-68
2022/02/17 05:29:50;;;;;;;0.45;0.35;;;20.50;45.60;;;;;;4997495;28;20098;-69
2022/02/17 05:32:15;;;;;;;0.38;0.38;;;20.50;45.60;;;;;;4998047;28;20113;-69
2022/02/17 05:34:41;;;;;;;0.28;0.28;;;20.50;45.70;;;;;;4998997;28;20034;-67
2022/02/17 05:37:07;;;;;;;0.45;0.40;;;20.50;45.70;;;;;;4998400;28;20037;-67
2022/02/17 05:39:32;;;;;;;0.50;0.32;;;20.40;45.70;;;;;;4997288;28;20035;-68
2022/02/17 05:41:58;;;;;;;0.47;0.43;;;20.40;46.20;;;;;;4999354;28;20037;-69
2022/02/17 05:44:24;;;;;;;0.40;0.40;;;20.40;45.70;;;;;;4998519;28;20406;-69
2022/02/17 05:46:50;;;;;;;0.38;0.30;;;20.40;45.80;;;;;;4998963;28;20034;-69
2022/02/17 05:49:15;;;;;;;0.50;0.40;;;20.40;45.80;;;;;;4998803;28;20030;-69
2022/02/17 05:51:41;;;;;;;0.57;0.50;;;20.40;45.80;;;;;;4999442;28;20018;-68
2022/02/17 05:54:06;;;;;;;0.43;0.40;;;20.40;45.80;;;;;;5002700;28;20080;-68
2022/02/17 05:56:32;;;;;;;0.40;0.40;;;20.40;45.80;;;;;;4999423;28;20022;-67
2022/02/17 05:58:58;;;;;;;0.40;0.40;;;20.40;45.90;;;;;;4994912;28;20113;-68
2022/02/17 06:01:24;;;;;;;0.32;0.32;;;20.40;46.40;;;;;;4995812;28;20049;-67
2022/02/17 06:03:49;;;;;;;0.32;0.30;;;20.40;46.00;;;;;;5009336;28;20046;-67
2022/02/17 06:06:15;;;;;;;0.50;0.45;;;20.40;46.00;;;;;;4998401;28;20053;-69
2022/02/17 06:08:40;;;;;;;0.40;0.40;;;20.40;46.10;;;;;;4998799;28;20035;-68
2022/02/17 06:11:06;;;;;;;0.30;0.30;;;20.40;46.00;;;;;;4995649;28;20075;-69
2022/02/17 06:13:32;;;;;;;0.30;0.30;;;20.40;46.10;;;;;;4991963;28;20646;-69
2022/02/17 06:15:58;;;;;;;0.30;0.30;;;20.40;46.10;;;;;;4998566;28;20033;-68
2022/02/17 06:18:23;;;;;;;0.43;0.40;;;20.30;46.10;;;;;;4997572;28;20025;-67
2022/02/17 06:20:50;;;;;;;0.28;0.28;;;20.30;46.10;;;;;;4999260;28;20029;-68
2022/02/17 06:23:15;;;;;;;0.20;0.20;;;20.30;46.10;;;;;;4999437;28;20498;-67
2022/02/17 06:25:41;;;;;;;0.70;0.40;;;20.30;46.20;;;;;;4998363;28;20101;-67
2022/02/17 06:28:07;;;;;;;0.30;0.30;;;20.40;46.50;;;;;;4997576;28;20045;-67
2022/02/17 06:30:32;;;;;;;0.45;0.30;;;20.30;46.60;;;;;;4994744;28;20053;-69
2022/02/17 06:32:58;;;;;;;1.55;0.43;;;20.30;46.90;;;;;;4998461;28;20077;-68
2022/02/17 06:35:29;;;;;;;0.93;0.40;;;20.30;47.00;;;;;;4997827;28;20100;-67
2022/02/17 06:37:55;;;;;;;0.75;0.50;;;20.30;47.20;;;;;;5002074;28;20032;-68
2022/02/17 06:40:22;;;;;;;0.40;0.40;;;20.30;47.40;;;;;;4998376;28;20045;-68
2022/02/17 06:42:48;;;;;;;0.40;0.35;;;20.30;47.40;;;;;;4997610;28;20022;-69
2022/02/17 06:45:13;;;;;;;0.93;0.40;;;20.30;47.40;;;;;;5010097;28;20204;-68
2022/02/17 06:47:39;;;;;;;0.40;0.40;;;20.30;47.50;;;;;;5002414;28;20101;-69
2022/02/17 06:50:07;;;;;;;1.02;0.40;;;20.30;47.50;;;;;;4999381;28;20084;-66
2022/02/17 06:52:33;;;;;;;0.70;0.50;;;20.40;47.60;;;;;;4992864;28;20025;-66
2022/02/17 06:54:59;;;;;;;0.55;0.45;;;20.40;48.60;;;;;;5010978;28;20033;-70
2022/02/17 06:57:25;;;;;;;1.17;0.50;;;20.70;48.60;;;;;;4997387;28;20026;-67
2022/02/17 06:59:52;;;;;;;1.13;0.80;;;20.90;48.20;;;;;;4946632;28;1385287;-68
2022/02/17 07:02:27;;;;;;;0.60;0.50;;;21.20;47.70;;;;;;4996388;28;20084;-68
2022/02/17 07:04:53;;;;;;;1.25;0.50;;;21.50;47.40;;;;;;4996809;28;20030;-66
2022/02/17 07:07:20;;;;;;;0.80;0.45;;;21.70;47.10;;;;;;4998636;28;20573;-67
2022/02/17 07:09:46;;;;;;;0.28;0.28;;;21.70;47.10;;;;;;4997210;28;20040;-68
2022/02/17 07:12:12;;;;;;;0.28;0.28;;;21.60;47.00;;;;;;5002932;28;20109;-68
2022/02/17 07:14:38;;;;;;;0.40;0.40;;;21.50;47.00;;;;;;4997572;28;20030;-67
2022/02/17 07:17:04;;;;;;;0.30;0.30;;;21.50;47.20;;;;;;4998221;28;20046;-67
2022/02/17 07:19:30;;;;;;;0.43;0.40;;;21.40;47.40;;;;;;4996271;28;20045;-66
2022/02/17 07:21:56;;;;;;;0.50;0.40;;;21.40;47.50;;;;;;4998339;28;20034;-67
2022/02/17 07:24:22;;;;;;;0.30;0.30;;;21.40;47.60;;;;;;5011696;28;20646;-68
2022/02/17 07:26:48;;;;;;;0.30;0.30;;;21.40;47.70;;;;;;4998162;28;20406;-67
2022/02/17 07:29:15;;;;;;;0.30;0.30;;;21.40;47.70;;;;;;4994970;28;20033;-69
2022/02/17 07:31:41;;;;;;;0.57;0.40;;;21.40;47.70;;;;;;4995019;28;20035;-67
2022/02/17 07:34:07;;;;;;;0.30;0.30;;;21.50;47.90;;;;;;4995331;28;20444;-69
2022/02/17 07:36:34;;;;;;;0.75;0.30;;;21.50;48.20;;;;;;4998866;28;20026;-69
2022/02/17 07:39:00;;;;;;;1.35;0.40;;;21.50;48.20;;;;;;4996577;28;20088;-65
2022/02/17 07:41:26;;;;;;;0.45;0.40;;;21.60;48.30;;;;;;4997141;28;20044;-64
2022/02/17 07:43:52;;;;;;;0.45;0.30;;;21.60;48.50;;;;;;4995645;28;20034;-67
2022/02/17 07:46:17;;;;;;;0.32;0.32;;;21.70;48.60;;;;;;4994946;28;20076;-68
2022/02/17 07:48:44;;;;;;;0.30;0.30;;;21.70;48.60;;;;;;4994624;28;20089;-67
2022/02/17 07:51:11;;;;;;;0.30;0.30;;;21.70;48.70;;;;;;4995812;28;20369;-68
2022/02/17 07:53:37;;;;;;;0.30;0.30;;;21.80;48.90;;;;;;4996152;28;20662;-67
2022/02/17 07:56:03;;;;;;;0.70;0.30;;;21.80;48.80;;;;;;4997650;28;20057;-68
2022/02/17 07:58:29;;;;;;;0.95;0.40;;;21.80;49.10;;;;;;4995240;28;20450;-64
2022/02/17 08:00:55;;;;;;;0.85;0.40;;;21.90;49.60;;;;;;5008448;28;20076;-65
2022/02/17 08:03:21;;;;;;;0.50;0.40;;;21.90;49.10;;;;;;4994797;28;20130;-67
2022/02/17 08:05:47;;;;;;;0.43;0.40;;;21.90;49.40;;;;;;4996253;28;20449;-68
2022/02/17 08:08:13;;;;;;;0.30;0.30;;;22.00;49.60;;;;;;5011607;28;20113;-68
2022/02/17 08:10:39;;;;;;;0.30;0.30;;;22.00;49.50;;;;;;4996008;28;20037;-67
2022/02/17 08:13:06;;;;;;;0.32;0.32;;;22.00;49.70;;;;;;4996047;28;20080;-66
2022/02/17 08:15:32;;;;;;;0.38;0.30;;;22.00;49.90;;;;;;4994929;28;20022;-67
2022/02/17 08:17:58;;;;;;;0.40;0.30;;;22.10;50.10;;;;;;4996578;28;20030;-63
2022/02/17 08:20:24;;;;;;;0.30;0.30;;;22.10;49.90;;;;;;4994782;28;20028;-67
2022/02/17 08:22:55;;;;;;;0.63;0.40;;;22.10;49.90;;;;;;5011113;28;20077;-70
2022/02/17 08:25:21;;;;;;;0.50;0.40;;;22.20;50.30;;;;;;4995620;28;20048;-67
2022/02/17 08:27:48;;;;;;;0.65;0.45;;;22.20;50.10;;;;;;4996188;28;20046;-68
2022/02/17 08:30:15;;;;;;;0.40;0.40;;;22.20;49.90;;;;;;4995539;28;20030;-67
2022/02/17 08:32:41;;;;;;;0.28;0.28;;;22.30;49.90;;;;;;4996122;28;20109;-67
2022/02/17 08:35:10;;;;;;;0.40;0.20;;;22.30;49.80;;;;;;4997107;28;20038;-65
2022/02/17 08:37:36;;;;;;;0.20;0.20;;;22.40;49.90;;;;;;4996086;28;20352;-68
2022/02/17 08:40:07;;;;;;;0.25;0.25;;;22.40;49.90;;;;;;4996487;28;20026;-68
2022/02/17 08:42:33;;;;;;;0.68;0.30;;;22.40;50.00;;;;;;5008399;28;20031;-68
2022/02/17 08:44:59;;;;;;;0.40;0.30;;;22.50;50.20;;;;;;4994172;28;20201;-67
2022/02/17 08:47:25;;;;;;;0.32;0.32;;;22.50;50.20;;;;;;4996056;28;20030;-66
2022/02/17 08:49:51;;;;;;;0.40;0.40;;;22.50;50.30;;;;;;4996219;28;20121;-69
2022/02/17 08:52:17;;;;;;;0.68;0.25;;;22.60;50.30;;;;;;4995349;28;20494;-67
2022/02/17 08:54:43;;;;;;;0.28;0.28;;;22.60;50.50;;;;;;4994601;28;20084;-67
2022/02/17 08:57:09;;;;;;;0.95;0.32;;;22.60;50.50;;;;;;4995300;28;20018;-65
2022/02/17 08:59:35;;;;;;;0.38;0.30;;;22.60;50.50;;;;;;4994397;28;20077;-68
2022/02/17 09:02:00;;;;;;;0.77;0.50;;;22.60;50.00;;;;;;4994316;28;20410;-63
2022/02/17 09:04:32;;;;;;;0.60;0.40;;;22.60;47.50;;;;;;4997129;28;20037;-64
2022/02/17 09:06:58;;;;;;;0.30;0.30;;;22.60;47.40;;;;;;4995726;28;20061;-66
2022/02/17 09:09:23;;;;;;;0.35;0.30;;;22.50;47.00;;;;;;4997525;28;20544;-67
2022/02/17 09:11:49;;;;;;;0.57;0.40;;;22.60;47.10;;;;;;4994731;28;20148;-68
2022/02/17 09:14:15;;;;;;;0.73;0.40;;;22.60;47.40;;;;;;5009782;28;20030;-68
2022/02/17 09:16:41;;;;;;;0.70;0.38;;;22.60;47.20;;;;;;4994830;28;20026;-67
2022/02/17 09:19:07;;;;;;;0.32;0.30;;;22.60;47.60;;;;;;4994511;28;20127;-67
2022/02/17 09:21:33;;;;;;;0.77;0.30;;;22.60;46.90;;;;;;4997517;28;20027;-67
2022/02/17 09:23:59;;;;;;;0.40;0.30;;;22.60;47.00;;;;;;4994471;28;20030;-63
2022/02/17 09:26:24;;;;;;;0.40;0.32;;;22.60;46.90;;;;;;4996984;28;20034;-67
2022/02/17 09:28:50;;;;;;;0.30;0.30;;;22.60;47.00;;;;;;4994754;28;21178;-70
2022/02/17 09:31:22;;;;;;;0.40;0.40;;;22.60;46.80;;;;;;4993909;28;20132;-63
2022/02/17 09:33:49;;;;;;;0.55;0.25;;;22.70;46.90;;;;;;4994115;28;20355;-66
2022/02/17 09:36:15;;;;;;;0.30;0.30;;;22.70;47.10;;;;;;4996468;28;20030;-65
2022/02/17 09:38:41;;;;;;;0.32;0.32;;;22.70;47.70;;;;;;4991618;28;20118;-66
2022/02/17 09:41:08;;;;;;;0.38;0.30;;;22.80;47.20;;;;;;4995881;28;20105;-66
2022/02/17 09:43:35;;;;;;;0.40;0.40;;;22.80;47.40;;;;;;4994817;28;20030;-66
2022/02/17 09:46:01;;;;;;;0.35;0.32;;;22.80;47.60;;;;;;4992019;28;20028;-65
2022/02/17 09:48:28;;;;;;;0.30;0.30;;;22.80;47.40;;;;;;4996388;28;20017;-64
2022/02/17 09:50:53;;;;;;;0.30;0.30;;;22.90;47.90;;;;;;4995182;28;20399;-66
2022/02/17 09:53:19;;;;;;;0.43;0.32;;;22.90;47.60;;;;;;4998100;28;20037;-66
2022/02/17 09:55:46;;;;;;;0.50;0.38;;;22.90;47.30;;;;;;4999394;28;20034;-65
2022/02/17 09:58:15;;;;;;;0.32;0.30;;;22.90;47.20;;;;;;4997009;28;20370;-67
2022/02/17 10:00:41;;;;;;;0.40;0.30;;;23.00;47.30;;;;;;4995496;28;20042;-67
2022/02/17 10:03:25;;;;;;;0.63;0.38;;;23.00;47.20;;;;;;4992004;28;20033;-64
2022/02/17 10:06:10;;;;;;;0.68;0.38;;;23.00;46.60;;;;;;4996435;28;20041;-66
2022/02/17 10:08:37;;;;;;;1.65;0.40;;;23.00;45.80;;;;;;4998723;28;20073;-65
2022/02/17 10:11:04;;;;;;;0.77;0.45;;;23.00;45.20;;;;;;4997461;28;20132;-67
2022/02/17 10:13:30;;;;;;;1.63;0.60;;;23.00;44.30;;;;;;4996663;28;20110;-65
2022/02/17 10:15:58;;;;;;;1.02;0.50;;;23.00;44.40;;;;;;4996134;28;20429;-67
2022/02/17 10:18:27;;;;;;;1.98;0.60;;;23.00;44.40;;;;;;4997604;28;20103;-68
2022/02/17 10:21:12;;;;;;;1.45;0.60;;;23.00;44.50;;;;;;4998648;28;20052;-68
2022/02/17 10:23:48;;;;;;;2.35;0.60;;;23.00;44.40;;;;;;5013087;28;20481;-67
2022/02/17 10:26:14;;;;;;;1.23;0.50;;;23.00;44.40;;;;;;4998925;28;20030;-67
2022/02/17 10:28:43;;;;;;;2.42;0.80;;;23.00;44.40;;;;;;4992921;28;20057;-68
2022/02/17 10:31:21;;;;;;;0.50;0.50;;;23.00;44.60;;;;;;4995577;28;20137;-69
2022/02/17 10:33:52;;;;;;;1.20;0.50;;;23.00;44.50;;;;;;4996008;28;20022;-69
2022/02/17 10:36:37;;;;;;;0.80;0.50;;;23.00;44.60;;;;;;4995912;28;20077;-68
2022/02/17 10:39:19;;;;;;;1.98;0.60;;;23.00;44.60;;;;;;4997602;28;20062;-68
2022/02/17 10:42:01;;;;;;;0.80;0.38;;;23.00;44.60;;;;;;4999986;28;20151;-68
2022/02/17 10:44:33;;;;;;;1.70;0.60;;;23.00;44.60;;;;;;4997697;28;20050;-70
2022/02/17 10:47:13;;;;;;;1.13;0.40;;;23.00;44.70;;;;;;4997627;28;20033;-66
2022/02/17 10:49:43;;;;;;;0.95;0.52;;;23.00;44.80;;;;;;4996591;28;20026;-67
2022/02/17 10:52:09;;;;;;;0.60;0.43;;;23.00;44.80;;;;;;5010356;28;20121;-68
2022/02/17 10:54:35;;;;;;;0.73;0.45;;;23.00;44.80;;;;;;4998298;28;20525;-66
2022/02/17 10:57:05;;;;;;;1.05;0.52;;;23.00;44.80;;;;;;4997291;28;20030;-68
2022/02/17 11:02:21;;;;;;;1.25;0.50;;;23.00;44.80;;;;;;4993529;28;20037;-69
2022/02/17 11:04:48;;;;;;;1.00;0.55;;;23.00;44.90;;;;;;4992016;28;20631;-66
2022/02/17 11:07:15;;;;;;;1.08;0.50;;;23.00;44.80;;;;;;4994927;28;20037;-69
2022/02/17 11:09:41;;;;;;;0.65;0.47;;;23.00;44.80;;;;;;4993760;28;20506;-68
2022/02/17 11:12:07;;;;;;;1.20;0.50;;;23.00;44.80;;;;;;4995607;28;20018;-68
2022/02/17 11:14:41;;;;;;;1.75;0.57;;;23.00;44.80;;;;;;4993000;28;20116;-68
2022/02/17 11:17:08;;;;;;;1.08;0.52;;;23.00;44.80;;;;;;4992748;28;20033;-69
2022/02/17 11:19:36;;;;;;;0.90;0.47;;;23.00;44.80;;;;;;4988738;28;20120;-67
2022/02/17 11:22:02;;;;;;;0.82;0.50;;;23.10;44.90;;;;;;4993419;28;20030;-68
2022/02/17 11:24:28;;;;;;;0.70;0.40;;;23.10;44.80;;;;;;4999351;28;20045;-68
2022/02/17 11:27:05;;;;;;;1.13;0.52;;;23.10;44.80;;;;;;4994354;28;20022;-72
2022/02/17 11:29:36;;;;;;;1.38;0.60;;;23.10;44.80;;;;;;4992818;28;20086;-67
2022/02/17 11:32:07;;;;;;;0.75;0.40;;;23.00;44.70;;;;;;4993286;28;20512;-68
2022/02/17 11:34:46;;;;;;;1.00;0.50;;;23.00;44.80;;;;;;4993838;28;20505;-68
2022/02/17 11:37:21;;;;;;;1.27;0.65;;;23.10;44.80;;;;;;4994595;28;20050;-66
2022/02/17 11:40:04;;;;;;;0.93;0.50;;;23.00;44.80;;;;;;4996608;28;20104;-72
2022/02/17 11:42:30;;;;;;;0.75;0.60;;;23.00;44.80;;;;;;4995940;28;20026;-68
2022/02/17 11:45:17;;;;;;;0.90;0.50;;;23.00;44.80;;;;;;4995854;28;20034;-69
2022/02/17 11:48:12;;;;;;;1.15;0.70;;;23.00;44.80;;;;;;4996278;28;20034;-68
2022/02/17 11:50:40;;;;;;;1.85;0.50;;;23.00;44.80;;;;;;4997439;28;20072;-69
2022/02/17 11:53:35;;;;;;;3.55;0.68;;;23.00;44.80;;;;;;4997447;28;20095;-70
2022/02/17 11:56:20;;;;;;;2.05;0.70;;;23.00;44.80;;;;;;4996937;28;20023;-69
2022/02/17 11:58:56;;;;;;;0.93;0.57;;;23.00;44.80;;;;;;5009021;28;20061;-69
2022/02/17 12:01:21;;;;;;;0.85;0.52;;;23.00;44.80;;;;;;5006532;28;20045;-70
2022/02/17 12:04:21;;;;;;;1.23;0.60;;;22.90;44.80;;;;;;4993565;28;20031;-69
2022/02/17 12:06:59;;;;;;;1.20;0.60;;;22.90;44.80;;;;;;5011245;28;20080;-66
2022/02/17 12:09:41;;;;;;;2.28;0.80;;;22.90;44.80;;;;;;5010081;28;20036;-67
2022/02/17 12:12:06;;;;;;;1.65;0.60;;;22.90;44.80;;;;;;4994781;28;20442;-66
2022/02/17 12:14:32;;;;;;;1.15;0.70;;;22.90;44.10;;;;;;4992922;28;20025;-70
2022/02/17 12:17:02;;;;;;;1.63;0.77;;;22.90;44.10;;;;;;4994805;28;20029;-70
2022/02/17 12:19:33;;;;;;;1.42;0.68;;;22.90;44.20;;;;;;4992690;28;20034;-65
2022/02/17 12:22:10;;;;;;;2.08;0.77;;;22.90;44.40;;;;;;4995046;28;20026;-66
2022/02/17 12:24:42;;;;;;;1.25;0.60;;;22.90;44.60;;;;;;4992991;28;20349;-68
2022/02/17 12:27:10;;;;;;;1.25;0.60;;;22.90;44.70;;;;;;4995363;28;20149;-68
2022/02/17 12:29:37;;;;;;;2.47;0.90;;;22.90;44.70;;;;;;4993188;28;20073;-69
2022/02/17 12:32:07;;;;;;;1.33;0.70;;;22.90;44.70;;;;;;4993469;28;20034;-68
2022/02/17 12:34:34;;;;;;;1.58;0.80;;;23.00;44.70;;;;;;4995296;28;20397;-68
2022/02/17 12:37:00;;;;;;;1.27;0.60;;;23.00;44.80;;;;;;4994733;28;20483;-70
2022/02/17 12:39:30;;;;;;;2.35;0.70;;;23.00;44.70;;;;;;4994775;28;20111;-68
2022/02/17 12:42:03;;;;;;;2.90;0.88;;;23.10;44.90;;;;;;4994256;28;20042;-69
2022/02/17 12:44:35;;;;;;;1.23;0.60;;;23.10;44.80;;;;;;4992339;28;20133;-70
2022/02/17 12:47:11;;;;;;;2.53;0.65;;;23.10;44.90;;;;;;5008816;28;20123;-68
2022/02/17 12:49:38;;;;;;;1.80;0.50;;;23.10;45.50;;;;;;4992437;28;20041;-68
2022/02/17 12:52:13;;;;;;;0.95;0.60;;;23.10;45.30;;;;;;4995220;28;20032;-68
2022/02/17 12:54:41;;;;;;;1.25;0.63;;;23.10;45.60;;;;;;4992614;28;20450;-68